Aviation Digital Data Service (ADDS)

Output produced by METARs form (1640 UTC 30 October 2020)
found at http://www.aviationweather.gov/metar/data/
 
KSSI 301553Z AUTO 33007KT 10SM CLR 18/09 A3002 RMK AO2 SLP168 T01780094
KSSI 301230Z 3013/3112 30012G18KT P6SM SKC 
     FM301800 34009KT P6SM SKC 
     FM310600 03012G18KT P6SM SCT030 SCT250